Shanghai, Shanghai

7:24 AM CST on February 01, 2015 (GMT +0800)
eric | Change Station
CLOSE
Current Station
Personal Weather Station
Location: 上海, 上海市
Elevation: 23 ft
Nearby Weather Stations

Elev 23 ft 31.32 °N, 121.47 °E | Updated 7 seconds ago

Clear
Clear
37.8 °F
Feels Like 38 °F
N
0.0
Wind Variable Wind from SSE
Gusts 0.0 mph

Today
High -- | Low -- °F
--% Chance of Precip.
Yesterday
High -- | Low -- °F
Precip. -- in
6:47 AM 5:28 PM
Waxing Gibbous, 92% visible
Pressure 30.54 in
Visibility -9999.0 miles
Clouds
Windchill 38 °F
Dew Point 29 °F
Humidity 70%
Rainfall 0.00 in
Snow Depth Not available.
UV 0.0 out of 12
Pollen Not available.
Air Quality Not available.
Flu Activity Not available.
METAR ZSSS 312300Z 36003MPS CAVOK 03/M02 Q1034 NOSIG

More Conditions Fewer Conditions

Pressure 30.54 in
Visibility -9999.0 miles
Clouds
Windchill 38 °F
Dew Point 29 °F
Humidity 70%
Rainfall 0.00 in
Snow Depth Not available.
UV 0.0 out of 12
Pollen Not available.
Air Quality Not available.
Flu Activity Not available.
METAR ZSSS 312300Z 36003MPS CAVOK 03/M02 Q1034 NOSIG

More Conditions Fewer Conditions

10-Day Weather Forecast

Almanac

Astronomy

Feb. 01, 2015 Rise Set
Actual Time
Civil Twilight
Nautical Twilight
Astronomical Twilight
Moon
Length of Visible Light
Length of Day
Tomorrow will be .
, % of the Moon is Illuminated

Today's Extremes

Country Highs Country Lows

Community

WunderPhotos

Upload Photos

1,792,247 photos uploaded!

WunderBlogs® & News

Nearby

Air Quality

  Air Quality AQ Index Pollutant
Not available.

Snow Depth

Station Depth Elevation

Earthquake Activity

City Distance Mag. Time & Date
Minimum magnitude displayed is 2.5.

Coastal Water Temperatures

Place Temperature

Nearby Weather Stations